N2KM TVSA-TKPN
Flight info
| Callsign | N2KM |
|---|---|
| Flight time | 1h 14m |
| Altitude | 26000 |
| Route | LIDOG1A LIDOG DCT ILURI |
| Aircraft | P180/L-SBDFGM3RWXY/LB1 |
Departure
| Time | 2026-05-08 16:08 |
|---|---|
| Airport | Argyle International Airport (TVSA) |
Arrival
| Time | 2026-05-08 17:23 |
|---|---|
| Airport | Vance W. Amory International Airport (TKPN) |
| Time | Latitude | Longitude | Altitude | Speed | Heading |
|---|---|---|---|---|---|
| 2026-05-08 15:57 | 13.16147 | -61.15146 | 94 ft | 0 kts | 20° |
| 2026-05-08 16:02 | 13.16151 | -61.15144 | 94 ft | 1 kts | 26° |
| 2026-05-08 16:02 | 13.16161 | -61.15133 | 94 ft | 3 kts | 63° |
| 2026-05-08 16:03 | 13.16157 | -61.15107 | 94 ft | 5 kts | 112° |
| 2026-05-08 16:03 | 13.16137 | -61.15071 | 94 ft | 7 kts | 145° |
| 2026-05-08 16:03 | 13.16084 | -61.15077 | 94 ft | 9 kts | 199° |
| 2026-05-08 16:03 | 13.16048 | -61.15068 | 94 ft | 6 kts | 109° |
| 2026-05-08 16:04 | 13.16030 | -61.15021 | 95 ft | 7 kts | 110° |
| 2026-05-08 16:04 | 13.16016 | -61.14979 | 97 ft | 6 kts | 110° |
| 2026-05-08 16:04 | 13.16001 | -61.14938 | 100 ft | 5 kts | 113° |
| 2026-05-08 16:04 | 13.15986 | -61.14913 | 102 ft | 4 kts | 132° |
| 2026-05-08 16:05 | 13.15925 | -61.14906 | 105 ft | 16 kts | 197° |
| 2026-05-08 16:05 | 13.15775 | -61.14966 | 111 ft | 30 kts | 201° |
| 2026-05-08 16:05 | 13.15539 | -61.15057 | 117 ft | 42 kts | 201° |
| 2026-05-08 16:05 | 13.15242 | -61.15172 | 122 ft | 46 kts | 200° |
| 2026-05-08 16:06 | 13.14974 | -61.15293 | 132 ft | 33 kts | 223° |
| 2026-05-08 16:06 | 13.14886 | -61.15346 | 135 ft | 10 kts | 142° |
| 2026-05-08 16:06 | 13.14890 | -61.15309 | 134 ft | 3 kts | 20° |
| 2026-05-08 16:06 | 13.14895 | -61.15307 | 134 ft | 0 kts | 20° |
| 2026-05-08 16:07 | 13.14924 | -61.15296 | 133 ft | 28 kts | 21° |
| 2026-05-08 16:07 | 13.15340 | -61.15134 | 118 ft | 94 kts | 21° |
| 2026-05-08 16:07 | 13.16070 | -61.14852 | 138 ft | 125 kts | 22° |
| 2026-05-08 16:08 | 13.16953 | -61.14495 | 332 ft | 146 kts | 23° |
| 2026-05-08 16:08 | 13.17919 | -61.14103 | 730 ft | 157 kts | 26° |
| 2026-05-08 16:08 | 13.18965 | -61.13584 | 1016 ft | 180 kts | 33° |
| 2026-05-08 16:08 | 13.20047 | -61.12744 | 1074 ft | 208 kts | 38° |
| 2026-05-08 16:09 | 13.21321 | -61.11931 | 1137 ft | 222 kts | 30° |
| 2026-05-08 16:09 | 13.22223 | -61.11410 | 1313 ft | 222 kts | 32° |
| 2026-05-08 16:09 | 13.23960 | -61.10316 | 1832 ft | 216 kts | 34° |
| 2026-05-08 16:09 | 13.25243 | -61.09522 | 2212 ft | 216 kts | 29° |
| 2026-05-08 16:10 | 13.26711 | -61.09272 | 2537 ft | 221 kts | 2° |
| 2026-05-08 16:10 | 13.28245 | -61.09261 | 2919 ft | 220 kts | 6° |
| 2026-05-08 16:10 | 13.29798 | -61.09162 | 3309 ft | 221 kts | 6° |
| 2026-05-08 16:10 | 13.31319 | -61.09100 | 3674 ft | 222 kts | 5° |
| 2026-05-08 16:11 | 13.32866 | -61.09049 | 4051 ft | 222 kts | 5° |
| 2026-05-08 16:11 | 13.34416 | -61.08990 | 4428 ft | 223 kts | 5° |
| 2026-05-08 16:11 | 13.35964 | -61.08948 | 4789 ft | 223 kts | 0° |
| 2026-05-08 16:11 | 13.37419 | -61.09451 | 5302 ft | 221 kts | 336° |
| 2026-05-08 16:12 | 13.38790 | -61.10115 | 5827 ft | 215 kts | 340° |
| 2026-05-08 16:12 | 13.40158 | -61.10711 | 6331 ft | 213 kts | 340° |
| 2026-05-08 16:12 | 13.41508 | -61.11331 | 6800 ft | 212 kts | 339° |
| 2026-05-08 16:12 | 13.42851 | -61.11953 | 7265 ft | 211 kts | 339° |
| 2026-05-08 16:13 | 13.44189 | -61.12570 | 7728 ft | 210 kts | 339° |
| 2026-05-08 16:13 | 13.45505 | -61.13175 | 8189 ft | 209 kts | 338° |
| 2026-05-08 16:13 | 13.46832 | -61.13786 | 8655 ft | 209 kts | 340° |
| 2026-05-08 16:13 | 13.48161 | -61.14399 | 9115 ft | 209 kts | 338° |
| 2026-05-08 16:14 | 13.49485 | -61.15011 | 9576 ft | 208 kts | 339° |
| 2026-05-08 16:14 | 13.50807 | -61.15614 | 10033 ft | 208 kts | 338° |
| 2026-05-08 16:14 | 13.52122 | -61.16222 | 10451 ft | 207 kts | 337° |
| 2026-05-08 16:14 | 13.53435 | -61.16828 | 10873 ft | 206 kts | 338° |
| 2026-05-08 16:15 | 13.54739 | -61.17428 | 11293 ft | 205 kts | 337° |
| 2026-05-08 16:15 | 13.56038 | -61.18026 | 11723 ft | 203 kts | 337° |
| 2026-05-08 16:15 | 13.57308 | -61.18611 | 12140 ft | 202 kts | 336° |
| 2026-05-08 16:15 | 13.58587 | -61.19201 | 12563 ft | 201 kts | 337° |
| 2026-05-08 16:16 | 13.59862 | -61.19789 | 12971 ft | 200 kts | 337° |
| 2026-05-08 16:16 | 13.61128 | -61.20374 | 13379 ft | 198 kts | 336° |
| 2026-05-08 16:16 | 13.62383 | -61.20951 | 13803 ft | 196 kts | 337° |
| 2026-05-08 16:16 | 13.63610 | -61.21561 | 14171 ft | 195 kts | 329° |
| 2026-05-08 16:17 | 13.64736 | -61.22342 | 14511 ft | 194 kts | 328° |
| 2026-05-08 16:17 | 13.65487 | -61.22836 | 14738 ft | 193 kts | 329° |
| 2026-05-08 16:17 | 13.67011 | -61.23824 | 15159 ft | 195 kts | 328° |
| 2026-05-08 16:17 | 13.68158 | -61.24583 | 15439 ft | 197 kts | 329° |
| 2026-05-08 16:18 | 13.69316 | -61.25347 | 15726 ft | 198 kts | 329° |
| 2026-05-08 16:18 | 13.70479 | -61.26116 | 16031 ft | 198 kts | 329° |
| 2026-05-08 16:18 | 13.71627 | -61.26873 | 16321 ft | 199 kts | 329° |
| 2026-05-08 16:18 | 13.72792 | -61.27643 | 16622 ft | 199 kts | 328° |
| 2026-05-08 16:19 | 13.73960 | -61.28413 | 16913 ft | 200 kts | 328° |
| 2026-05-08 16:19 | 13.75131 | -61.29188 | 17214 ft | 200 kts | 329° |
| 2026-05-08 16:19 | 13.76302 | -61.29961 | 17512 ft | 199 kts | 329° |
| 2026-05-08 16:19 | 13.77468 | -61.30731 | 17813 ft | 199 kts | 329° |
| 2026-05-08 16:20 | 13.78631 | -61.31500 | 18112 ft | 199 kts | 329° |
| 2026-05-08 16:20 | 13.79794 | -61.32269 | 18385 ft | 198 kts | 329° |
| 2026-05-08 16:20 | 13.80954 | -61.33043 | 18624 ft | 199 kts | 330° |
| 2026-05-08 16:20 | 13.82125 | -61.33812 | 18857 ft | 199 kts | 332° |
| 2026-05-08 16:21 | 13.82900 | -61.34320 | 19013 ft | 200 kts | 332° |
| 2026-05-08 16:21 | 13.84385 | -61.35304 | 19320 ft | 200 kts | 332° |
| 2026-05-08 16:21 | 13.85558 | -61.36079 | 19558 ft | 200 kts | 332° |
| 2026-05-08 16:21 | 13.86732 | -61.36855 | 19802 ft | 201 kts | 332° |
| 2026-05-08 16:22 | 13.87896 | -61.37626 | 20029 ft | 201 kts | 332° |
| 2026-05-08 16:22 | 13.89071 | -61.38402 | 20273 ft | 201 kts | 332° |
| 2026-05-08 16:22 | 13.90248 | -61.39181 | 20517 ft | 201 kts | 332° |
| 2026-05-08 16:22 | 13.91427 | -61.39960 | 20757 ft | 202 kts | 332° |
| 2026-05-08 16:23 | 13.92606 | -61.40742 | 20999 ft | 202 kts | 332° |
| 2026-05-08 16:23 | 13.93791 | -61.41525 | 21243 ft | 202 kts | 332° |
| 2026-05-08 16:23 | 13.94977 | -61.42312 | 21488 ft | 203 kts | 332° |
| 2026-05-08 16:23 | 13.96168 | -61.43098 | 21735 ft | 203 kts | 332° |
| 2026-05-08 16:24 | 13.97363 | -61.43890 | 21986 ft | 204 kts | 332° |
| 2026-05-08 16:24 | 13.98544 | -61.44672 | 22234 ft | 204 kts | 332° |
| 2026-05-08 16:24 | 13.99742 | -61.45465 | 22487 ft | 205 kts | 332° |
| 2026-05-08 16:24 | 14.00945 | -61.46263 | 22739 ft | 206 kts | 332° |
| 2026-05-08 16:25 | 14.02152 | -61.47061 | 22997 ft | 206 kts | 332° |
| 2026-05-08 16:25 | 14.03362 | -61.47864 | 23259 ft | 207 kts | 332° |
| 2026-05-08 16:25 | 14.04576 | -61.48666 | 23515 ft | 208 kts | 333° |
| 2026-05-08 16:25 | 14.05792 | -61.49473 | 23737 ft | 208 kts | 332° |
| 2026-05-08 16:26 | 14.07014 | -61.50283 | 23950 ft | 209 kts | 332° |
| 2026-05-08 16:26 | 14.08251 | -61.51103 | 24131 ft | 212 kts | 332° |
| 2026-05-08 16:26 | 14.09482 | -61.51918 | 24323 ft | 214 kts | 332° |
| 2026-05-08 16:26 | 14.10737 | -61.52751 | 24523 ft | 215 kts | 331° |
| 2026-05-08 16:27 | 14.12003 | -61.53590 | 24726 ft | 216 kts | 331° |
| 2026-05-08 16:27 | 14.13272 | -61.54431 | 24940 ft | 218 kts | 330° |
| 2026-05-08 16:27 | 14.14548 | -61.55279 | 25152 ft | 218 kts | 330° |
| 2026-05-08 16:27 | 14.15827 | -61.56126 | 25371 ft | 219 kts | 332° |
| 2026-05-08 16:28 | 14.17111 | -61.56978 | 25597 ft | 219 kts | 331° |
| 2026-05-08 16:28 | 14.18396 | -61.57831 | 25823 ft | 220 kts | 331° |
| 2026-05-08 16:28 | 14.19687 | -61.58689 | 25988 ft | 223 kts | 331° |
| 2026-05-08 16:28 | 14.20567 | -61.59271 | 25993 ft | 230 kts | 331° |
| 2026-05-08 16:29 | 14.21943 | -61.60182 | 26002 ft | 240 kts | 330° |
| 2026-05-08 16:29 | 14.23844 | -61.61447 | 26005 ft | 251 kts | 330° |
| 2026-05-08 16:29 | 14.25338 | -61.62437 | 26005 ft | 259 kts | 330° |
| 2026-05-08 16:29 | 14.26872 | -61.63456 | 26005 ft | 266 kts | 330° |
| 2026-05-08 16:30 | 14.28445 | -61.64502 | 26004 ft | 272 kts | 330° |
| 2026-05-08 16:30 | 14.29505 | -61.65207 | 26004 ft | 275 kts | 330° |
| 2026-05-08 16:30 | 14.31132 | -61.66287 | 26003 ft | 280 kts | 330° |
| 2026-05-08 16:30 | 14.32783 | -61.67385 | 26004 ft | 285 kts | 330° |
| 2026-05-08 16:31 | 14.34459 | -61.68499 | 26005 ft | 289 kts | 330° |
| 2026-05-08 16:31 | 14.36162 | -61.69631 | 26007 ft | 292 kts | 330° |
| 2026-05-08 16:31 | 14.37878 | -61.70772 | 26008 ft | 295 kts | 330° |
| 2026-05-08 16:31 | 14.39612 | -61.71924 | 26008 ft | 297 kts | 330° |
| 2026-05-08 16:32 | 14.41357 | -61.73086 | 26008 ft | 300 kts | 330° |
| 2026-05-08 16:32 | 14.43117 | -61.74256 | 26008 ft | 302 kts | 330° |
| 2026-05-08 16:32 | 14.44883 | -61.75433 | 26008 ft | 303 kts | 330° |
| 2026-05-08 16:32 | 14.46645 | -61.76604 | 26008 ft | 305 kts | 330° |
| 2026-05-08 16:33 | 14.48436 | -61.77797 | 26004 ft | 306 kts | 330° |
| 2026-05-08 16:33 | 14.50235 | -61.78996 | 26009 ft | 307 kts | 331° |
| 2026-05-08 16:33 | 14.52036 | -61.80193 | 26011 ft | 307 kts | 331° |
| 2026-05-08 16:33 | 14.53811 | -61.81375 | 26010 ft | 308 kts | 331° |
| 2026-05-08 16:34 | 14.55616 | -61.82579 | 26011 ft | 308 kts | 331° |
| 2026-05-08 16:34 | 14.57418 | -61.83778 | 26010 ft | 308 kts | 331° |
| 2026-05-08 16:34 | 14.59220 | -61.84980 | 26010 ft | 309 kts | 331° |
| 2026-05-08 16:34 | 14.61027 | -61.86185 | 26011 ft | 309 kts | 331° |
| 2026-05-08 16:35 | 14.62836 | -61.87389 | 26011 ft | 309 kts | 331° |
| 2026-05-08 16:35 | 14.64642 | -61.88596 | 26011 ft | 309 kts | 331° |
| 2026-05-08 16:35 | 14.66434 | -61.89791 | 26010 ft | 310 kts | 331° |
| 2026-05-08 16:35 | 14.68243 | -61.90996 | 26010 ft | 310 kts | 331° |
| 2026-05-08 16:36 | 14.70054 | -61.92206 | 26007 ft | 310 kts | 331° |
| 2026-05-08 16:36 | 14.71870 | -61.93418 | 26002 ft | 310 kts | 331° |
| 2026-05-08 16:36 | 14.73681 | -61.94624 | 26002 ft | 310 kts | 331° |
| 2026-05-08 16:36 | 14.75493 | -61.95837 | 26002 ft | 310 kts | 331° |
| 2026-05-08 16:37 | 14.77304 | -61.97045 | 26005 ft | 310 kts | 331° |
| 2026-05-08 16:37 | 14.79117 | -61.98255 | 26005 ft | 310 kts | 331° |
| 2026-05-08 16:37 | 14.80930 | -61.99468 | 26005 ft | 310 kts | 331° |
| 2026-05-08 16:37 | 14.82742 | -62.00678 | 26005 ft | 310 kts | 331° |
| 2026-05-08 16:38 | 14.84555 | -62.01889 | 25998 ft | 310 kts | 332° |
| 2026-05-08 16:38 | 14.86366 | -62.03100 | 25998 ft | 310 kts | 332° |
| 2026-05-08 16:38 | 14.88155 | -62.04295 | 25999 ft | 310 kts | 332° |
| 2026-05-08 16:38 | 14.89966 | -62.05508 | 26002 ft | 310 kts | 332° |
| 2026-05-08 16:39 | 14.91781 | -62.06720 | 26002 ft | 310 kts | 332° |
| 2026-05-08 16:39 | 14.93592 | -62.07931 | 26002 ft | 310 kts | 332° |
| 2026-05-08 16:39 | 14.95405 | -62.09145 | 26002 ft | 310 kts | 332° |
| 2026-05-08 16:39 | 14.97216 | -62.10357 | 26002 ft | 310 kts | 332° |
| 2026-05-08 16:40 | 14.99027 | -62.11571 | 26002 ft | 310 kts | 332° |
| 2026-05-08 16:40 | 15.00842 | -62.12785 | 26003 ft | 310 kts | 332° |
| 2026-05-08 16:40 | 15.02655 | -62.13998 | 26003 ft | 310 kts | 332° |
| 2026-05-08 16:40 | 15.04469 | -62.15215 | 26003 ft | 310 kts | 332° |
| 2026-05-08 16:41 | 15.06283 | -62.16429 | 26006 ft | 310 kts | 332° |
| 2026-05-08 16:41 | 15.08095 | -62.17643 | 26006 ft | 310 kts | 332° |
| 2026-05-08 16:41 | 15.09906 | -62.18858 | 26006 ft | 310 kts | 332° |
| 2026-05-08 16:42 | 15.13535 | -62.21291 | 26006 ft | 310 kts | 332° |
| 2026-05-08 16:42 | 15.15327 | -62.22492 | 26006 ft | 310 kts | 332° |
| 2026-05-08 16:42 | 15.17144 | -62.23711 | 26003 ft | 310 kts | 332° |
| 2026-05-08 16:42 | 15.18958 | -62.24927 | 25999 ft | 311 kts | 333° |
| 2026-05-08 16:43 | 15.20770 | -62.26144 | 26000 ft | 311 kts | 333° |
| 2026-05-08 16:43 | 15.22584 | -62.27363 | 26000 ft | 311 kts | 333° |
| 2026-05-08 16:43 | 15.24400 | -62.28580 | 26000 ft | 311 kts | 333° |
| 2026-05-08 16:43 | 15.26213 | -62.29797 | 26000 ft | 311 kts | 333° |
| 2026-05-08 16:44 | 15.28027 | -62.31017 | 26000 ft | 311 kts | 333° |
| 2026-05-08 16:44 | 15.29842 | -62.32234 | 26000 ft | 311 kts | 333° |
| 2026-05-08 16:44 | 15.31655 | -62.33453 | 26000 ft | 311 kts | 333° |
| 2026-05-08 16:44 | 15.33469 | -62.34674 | 26000 ft | 311 kts | 333° |
| 2026-05-08 16:45 | 15.35261 | -62.35876 | 26001 ft | 311 kts | 333° |
| 2026-05-08 16:45 | 15.37075 | -62.37097 | 26001 ft | 311 kts | 333° |
| 2026-05-08 16:45 | 15.38889 | -62.38317 | 26001 ft | 311 kts | 333° |
| 2026-05-08 16:45 | 15.40705 | -62.39537 | 26001 ft | 311 kts | 333° |
| 2026-05-08 16:46 | 15.42519 | -62.40759 | 26004 ft | 311 kts | 333° |
| 2026-05-08 16:46 | 15.44334 | -62.41979 | 26004 ft | 311 kts | 333° |
| 2026-05-08 16:46 | 15.46152 | -62.43202 | 26004 ft | 311 kts | 333° |
| 2026-05-08 16:46 | 15.47963 | -62.44423 | 26004 ft | 311 kts | 333° |
| 2026-05-08 16:47 | 15.49777 | -62.45642 | 26004 ft | 311 kts | 333° |
| 2026-05-08 16:47 | 15.51568 | -62.46849 | 26004 ft | 311 kts | 333° |
| 2026-05-08 16:47 | 15.53380 | -62.48071 | 26001 ft | 311 kts | 333° |
| 2026-05-08 16:47 | 15.55197 | -62.49293 | 26001 ft | 311 kts | 333° |
| 2026-05-08 16:48 | 15.57009 | -62.50515 | 26000 ft | 311 kts | 333° |
| 2026-05-08 16:48 | 15.58825 | -62.51740 | 26000 ft | 311 kts | 333° |
| 2026-05-08 16:48 | 15.60641 | -62.52963 | 25996 ft | 311 kts | 333° |
| 2026-05-08 16:48 | 15.62455 | -62.54188 | 25997 ft | 311 kts | 333° |
| 2026-05-08 16:49 | 15.64269 | -62.55410 | 26001 ft | 311 kts | 333° |
| 2026-05-08 16:49 | 15.66084 | -62.56633 | 25999 ft | 311 kts | 333° |
| 2026-05-08 16:49 | 15.67896 | -62.57858 | 26001 ft | 311 kts | 333° |
| 2026-05-08 16:49 | 15.69713 | -62.59084 | 25997 ft | 311 kts | 333° |
| 2026-05-08 16:50 | 15.71530 | -62.60308 | 26001 ft | 311 kts | 333° |
| 2026-05-08 16:50 | 15.73331 | -62.61528 | 25998 ft | 307 kts | 333° |
| 2026-05-08 16:50 | 15.75106 | -62.62727 | 25994 ft | 303 kts | 333° |
| 2026-05-08 16:50 | 15.76842 | -62.63898 | 25998 ft | 300 kts | 333° |
| 2026-05-08 16:51 | 15.78587 | -62.65079 | 25996 ft | 298 kts | 333° |
| 2026-05-08 16:51 | 15.80325 | -62.66251 | 25993 ft | 296 kts | 334° |
| 2026-05-08 16:51 | 15.82049 | -62.67416 | 25994 ft | 294 kts | 333° |
| 2026-05-08 16:51 | 15.83765 | -62.68578 | 25994 ft | 294 kts | 334° |
| 2026-05-08 16:52 | 15.85475 | -62.69731 | 25994 ft | 293 kts | 333° |
| 2026-05-08 16:52 | 15.87184 | -62.70888 | 25995 ft | 293 kts | 333° |
| 2026-05-08 16:52 | 15.88890 | -62.72042 | 25998 ft | 292 kts | 334° |
| 2026-05-08 16:52 | 15.90596 | -62.73197 | 25996 ft | 292 kts | 334° |
| 2026-05-08 16:53 | 15.93984 | -62.75489 | 25997 ft | 292 kts | 334° |
| 2026-05-08 16:53 | 15.95689 | -62.76643 | 25994 ft | 292 kts | 334° |
| 2026-05-08 16:53 | 15.97390 | -62.77794 | 25997 ft | 292 kts | 334° |
| 2026-05-08 16:54 | 15.99090 | -62.78947 | 25995 ft | 291 kts | 334° |
| 2026-05-08 16:54 | 16.00790 | -62.80097 | 25996 ft | 291 kts | 334° |
| 2026-05-08 16:54 | 16.02489 | -62.81250 | 25999 ft | 291 kts | 334° |
| 2026-05-08 16:54 | 16.04187 | -62.82400 | 26000 ft | 291 kts | 334° |
| 2026-05-08 16:55 | 16.05884 | -62.83550 | 26003 ft | 291 kts | 333° |
| 2026-05-08 16:55 | 16.07577 | -62.84699 | 26003 ft | 291 kts | 333° |
| 2026-05-08 16:55 | 16.09275 | -62.85851 | 25954 ft | 292 kts | 333° |
| 2026-05-08 16:55 | 16.10994 | -62.87013 | 25768 ft | 297 kts | 333° |
| 2026-05-08 16:56 | 16.12729 | -62.88190 | 25549 ft | 299 kts | 333° |
| 2026-05-08 16:56 | 16.14456 | -62.89364 | 25268 ft | 302 kts | 333° |
| 2026-05-08 16:56 | 16.16231 | -62.90566 | 24912 ft | 305 kts | 333° |
| 2026-05-08 16:56 | 16.18001 | -62.91771 | 24552 ft | 303 kts | 333° |
| 2026-05-08 16:57 | 16.19762 | -62.92968 | 24197 ft | 301 kts | 333° |
| 2026-05-08 16:57 | 16.21517 | -62.94160 | 23845 ft | 300 kts | 332° |
| 2026-05-08 16:57 | 16.23261 | -62.95344 | 23466 ft | 298 kts | 332° |
| 2026-05-08 16:57 | 16.24996 | -62.96522 | 23062 ft | 297 kts | 332° |
| 2026-05-08 16:58 | 16.26722 | -62.97694 | 22651 ft | 296 kts | 332° |
| 2026-05-08 16:58 | 16.28476 | -62.98786 | 22243 ft | 290 kts | 340° |
| 2026-05-08 16:58 | 16.30386 | -62.99354 | 21840 ft | 283 kts | 354° |
| 2026-05-08 16:58 | 16.32331 | -62.99400 | 21444 ft | 278 kts | 8° |
| 2026-05-08 16:59 | 16.34209 | -62.98997 | 21056 ft | 275 kts | 16° |
| 2026-05-08 16:59 | 16.36068 | -62.98533 | 20673 ft | 274 kts | 15° |
| 2026-05-08 16:59 | 16.37921 | -62.98085 | 20295 ft | 273 kts | 15° |
| 2026-05-08 16:59 | 16.39763 | -62.97633 | 19902 ft | 271 kts | 15° |
| 2026-05-08 17:00 | 16.41597 | -62.97181 | 19506 ft | 270 kts | 15° |
| 2026-05-08 17:00 | 16.43425 | -62.96733 | 19120 ft | 269 kts | 15° |
| 2026-05-08 17:00 | 16.45247 | -62.96288 | 18738 ft | 268 kts | 15° |
| 2026-05-08 17:00 | 16.47059 | -62.95840 | 18362 ft | 268 kts | 15° |
| 2026-05-08 17:01 | 16.48846 | -62.95401 | 17944 ft | 267 kts | 14° |
| 2026-05-08 17:01 | 16.50654 | -62.94957 | 17511 ft | 267 kts | 14° |
| 2026-05-08 17:01 | 16.52458 | -62.94514 | 17090 ft | 265 kts | 14° |
| 2026-05-08 17:01 | 16.54244 | -62.94076 | 16682 ft | 262 kts | 14° |
| 2026-05-08 17:02 | 16.56015 | -62.93640 | 16266 ft | 261 kts | 14° |
| 2026-05-08 17:02 | 16.57779 | -62.93205 | 15857 ft | 259 kts | 14° |
| 2026-05-08 17:02 | 16.59527 | -62.92776 | 15456 ft | 257 kts | 14° |
| 2026-05-08 17:02 | 16.61269 | -62.92347 | 15058 ft | 256 kts | 14° |
| 2026-05-08 17:03 | 16.63000 | -62.91922 | 14666 ft | 255 kts | 14° |
| 2026-05-08 17:03 | 16.64722 | -62.91496 | 14277 ft | 253 kts | 14° |
| 2026-05-08 17:03 | 16.66436 | -62.91076 | 13896 ft | 253 kts | 13° |
| 2026-05-08 17:03 | 16.68121 | -62.90663 | 13480 ft | 252 kts | 14° |
| 2026-05-08 17:04 | 16.69821 | -62.90241 | 13053 ft | 250 kts | 14° |
| 2026-05-08 17:04 | 16.71511 | -62.89824 | 12628 ft | 250 kts | 13° |
| 2026-05-08 17:04 | 16.73204 | -62.89410 | 12210 ft | 248 kts | 14° |
| 2026-05-08 17:04 | 16.74881 | -62.88996 | 11799 ft | 247 kts | 14° |
| 2026-05-08 17:05 | 16.76547 | -62.88585 | 11388 ft | 246 kts | 14° |
| 2026-05-08 17:05 | 16.78206 | -62.88175 | 11001 ft | 244 kts | 14° |
| 2026-05-08 17:05 | 16.79847 | -62.87771 | 10628 ft | 242 kts | 14° |
| 2026-05-08 17:05 | 16.81484 | -62.87369 | 10256 ft | 240 kts | 14° |
| 2026-05-08 17:06 | 16.83108 | -62.86969 | 9890 ft | 238 kts | 13° |
| 2026-05-08 17:06 | 16.84713 | -62.86573 | 9514 ft | 236 kts | 14° |
| 2026-05-08 17:06 | 16.86277 | -62.86187 | 9205 ft | 232 kts | 14° |
| 2026-05-08 17:06 | 16.87839 | -62.85801 | 8896 ft | 229 kts | 14° |
| 2026-05-08 17:07 | 16.89380 | -62.85420 | 8589 ft | 226 kts | 15° |
| 2026-05-08 17:07 | 16.90905 | -62.85044 | 8296 ft | 224 kts | 15° |
| 2026-05-08 17:07 | 16.92420 | -62.84672 | 8012 ft | 223 kts | 15° |
| 2026-05-08 17:07 | 16.93929 | -62.84298 | 7722 ft | 223 kts | 15° |
| 2026-05-08 17:08 | 16.95442 | -62.83925 | 7424 ft | 224 kts | 16° |
| 2026-05-08 17:08 | 16.96965 | -62.83548 | 7127 ft | 224 kts | 16° |
| 2026-05-08 17:08 | 16.98483 | -62.83173 | 6831 ft | 225 kts | 16° |
| 2026-05-08 17:08 | 17.00008 | -62.82796 | 6534 ft | 225 kts | 16° |
| 2026-05-08 17:09 | 17.01533 | -62.82420 | 6228 ft | 225 kts | 17° |
| 2026-05-08 17:09 | 17.03054 | -62.82042 | 5918 ft | 224 kts | 17° |
| 2026-05-08 17:09 | 17.04568 | -62.81672 | 5624 ft | 223 kts | 17° |
| 2026-05-08 17:09 | 17.06055 | -62.81301 | 5331 ft | 222 kts | 17° |
| 2026-05-08 17:10 | 17.07553 | -62.80931 | 5057 ft | 221 kts | 17° |
| 2026-05-08 17:10 | 17.09047 | -62.80561 | 4762 ft | 221 kts | 17° |
| 2026-05-08 17:10 | 17.10545 | -62.80190 | 4465 ft | 220 kts | 17° |
| 2026-05-08 17:10 | 17.12033 | -62.79824 | 4176 ft | 219 kts | 17° |
| 2026-05-08 17:11 | 17.13514 | -62.79457 | 3888 ft | 218 kts | 16° |
| 2026-05-08 17:11 | 17.14996 | -62.79090 | 3583 ft | 218 kts | 17° |
| 2026-05-08 17:11 | 17.16476 | -62.78723 | 3297 ft | 218 kts | 15° |
| 2026-05-08 17:11 | 17.17952 | -62.78360 | 3003 ft | 218 kts | 17° |
| 2026-05-08 17:12 | 17.19401 | -62.78000 | 2712 ft | 213 kts | 16° |
| 2026-05-08 17:12 | 17.20817 | -62.77649 | 2441 ft | 205 kts | 16° |
| 2026-05-08 17:12 | 17.22126 | -62.77192 | 2163 ft | 192 kts | 36° |
| 2026-05-08 17:12 | 17.22957 | -62.76193 | 2026 ft | 178 kts | 63° |
| 2026-05-08 17:13 | 17.23253 | -62.74972 | 2015 ft | 171 kts | 88° |
| 2026-05-08 17:13 | 17.23159 | -62.73748 | 2014 ft | 167 kts | 93° |
| 2026-05-08 17:13 | 17.23081 | -62.72527 | 2012 ft | 171 kts | 92° |
| 2026-05-08 17:13 | 17.22988 | -62.71241 | 2018 ft | 181 kts | 93° |
| 2026-05-08 17:14 | 17.22889 | -62.69892 | 2029 ft | 191 kts | 93° |
| 2026-05-08 17:14 | 17.22788 | -62.68489 | 1954 ft | 197 kts | 94° |
| 2026-05-08 17:14 | 17.22486 | -62.67064 | 1667 ft | 202 kts | 104° |
| 2026-05-08 17:14 | 17.22106 | -62.65672 | 1382 ft | 201 kts | 103° |
| 2026-05-08 17:15 | 17.21752 | -62.64243 | 1039 ft | 199 kts | 102° |
| 2026-05-08 17:15 | 17.21438 | -62.62928 | 852 ft | 164 kts | 103° |
| 2026-05-08 17:15 | 17.21134 | -62.61938 | 662 ft | 126 kts | 107° |
| 2026-05-08 17:15 | 17.20839 | -62.61153 | 467 ft | 109 kts | 108° |
| 2026-05-08 17:16 | 17.20604 | -62.60393 | 262 ft | 110 kts | 97° |
| 2026-05-08 17:16 | 17.20568 | -62.59596 | 67 ft | 107 kts | 90° |
| 2026-05-08 17:16 | 17.20574 | -62.58859 | 26 ft | 96 kts | 89° |
| 2026-05-08 17:16 | 17.20580 | -62.58123 | 249 ft | 105 kts | 89° |
| 2026-05-08 17:17 | 17.20815 | -62.57408 | 425 ft | 114 kts | 47° |
| 2026-05-08 17:17 | 17.21642 | -62.57404 | 636 ft | 151 kts | 322° |
| 2026-05-08 17:17 | 17.22019 | -62.58485 | 808 ft | 183 kts | 259° |
| 2026-05-08 17:17 | 17.21701 | -62.59814 | 1230 ft | 192 kts | 255° |
| 2026-05-08 17:18 | 17.21333 | -62.61196 | 1661 ft | 205 kts | 253° |
| 2026-05-08 17:18 | 17.20895 | -62.62707 | 1783 ft | 226 kts | 252° |
| 2026-05-08 17:18 | 17.20373 | -62.64298 | 1870 ft | 237 kts | 249° |
| 2026-05-08 17:18 | 17.19996 | -62.65397 | 1847 ft | 246 kts | 250° |
| 2026-05-08 17:19 | 17.19408 | -62.67669 | 1975 ft | 239 kts | 264° |
| 2026-05-08 17:19 | 17.19478 | -62.69364 | 2081 ft | 231 kts | 283° |
| 2026-05-08 17:19 | 17.20025 | -62.70936 | 2052 ft | 231 kts | 300° |
| 2026-05-08 17:19 | 17.20940 | -62.72322 | 1961 ft | 232 kts | 312° |
| 2026-05-08 17:20 | 17.21690 | -62.73152 | 1935 ft | 228 kts | 321° |
| 2026-05-08 17:20 | 17.22936 | -62.74099 | 1923 ft | 217 kts | 333° |
| 2026-05-08 17:20 | 17.24709 | -62.74971 | 1764 ft | 206 kts | 342° |
| 2026-05-08 17:20 | 17.25586 | -62.75264 | 1694 ft | 195 kts | 348° |
| 2026-05-08 17:21 | 17.26853 | -62.75587 | 1603 ft | 180 kts | 353° |
| 2026-05-08 17:21 | 17.28000 | -62.75745 | 1462 ft | 142 kts | 9° |
| 2026-05-08 17:21 | 17.28819 | -62.75469 | 1278 ft | 118 kts | 39° |
| 2026-05-08 17:21 | 17.29344 | -62.74817 | 958 ft | 119 kts | 61° |
| 2026-05-08 17:22 | 17.29765 | -62.74091 | 624 ft | 114 kts | 65° |
| 2026-05-08 17:22 | 17.30169 | -62.73390 | 403 ft | 112 kts | 65° |
| 2026-05-08 17:22 | 17.30590 | -62.72703 | 215 ft | 113 kts | 59° |
| 2026-05-08 17:22 | 17.30981 | -62.72088 | 169 ft | 84 kts | 57° |
| 2026-05-08 17:23 | 17.31185 | -62.71768 | 166 ft | 46 kts | 56° |
| 2026-05-08 17:23 | 17.31312 | -62.71569 | 163 ft | 18 kts | 55° |
| 2026-05-08 17:23 | 17.31352 | -62.71506 | 162 ft | 13 kts | 56° |
| 2026-05-08 17:23 | 17.31406 | -62.71416 | 161 ft | 13 kts | 77° |
| 2026-05-08 17:24 | 17.31356 | -62.71394 | 159 ft | 13 kts | 211° |
| 2026-05-08 17:24 | 17.31268 | -62.71449 | 155 ft | 12 kts | 204° |
| 2026-05-08 17:24 | 17.31211 | -62.71413 | 154 ft | 9 kts | 104° |
| 2026-05-08 17:24 | 17.31234 | -62.71358 | 154 ft | 7 kts | 54° |
| 2026-05-08 17:25 | 17.31226 | -62.71328 | 154 ft | 2 kts | 159° |
| 2026-05-08 17:25 | 17.31220 | -62.71332 | 154 ft | 0 kts | 241° |